Flight Track Log - Related Links

Times and Time Zones

All times are in EDT time to prevent confusion due to time zone crossing. See the AAL1151 flight status page for this flight to view local times or setup timezone preferences in your user account.

Time Position Orientation Groundspeed Altitude Reporting Facility
EDT Latitude Longitude Course Direction KTS MPH feet Rate Location/Type
Sun 12:48:10 PM 32.8833 -97.0500 196° South 176 203 1,300  Level Dallas / Fort Worth TRACON
Sun 12:48:35 PM 32.8667 -97.0500 180° South 164 189 2,300 1,981 Climbing Dallas / Fort Worth TRACON
Sun 12:49:53 PM 32.7872 -97.0536 182° South 239 275 4,700 2,400 Climbing Fort Worth Center
Sun 12:50:55 PM 32.7119 -97.0556 181° South 265 305 7,900 3,000 Climbing Fort Worth Center
Sun 12:51:00 PM 32.7107 -97.0827 157° South  Level Estimated
Sun 12:51:57 PM 32.6242 -97.0558 180° South 291 335 10,900  Level Fort Worth Center
Sun 12:52:00 PM 32.6395 -97.0081 139° Southeast  Level FlightAware Approximate
Sun 12:53:00 PM 32.5471 -97.0338 196° South  Level Estimated
Sun 12:53:00 PM 32.5308 -97.0569 181° South 336 387 12,500  Level Fort Worth Center
Sun 12:54:02 PM 32.4256 -97.0581 181° South 365 420 15,400 2,661 Climbing Fort Worth Center
Sun 12:55:04 PM 32.3094 -97.0603 181° South 383 441 18,000 2,129 Climbing Fort Worth Center
Sun 12:56:06 PM 32.2139 -97.0614 181° South 397 457 19,800 1,742 Climbing Fort Worth Center
Sun 12:57:08 PM 32.0775 -97.0653 181° South 405 466 21,600 1,065 Climbing Fort Worth Center
Sun 12:58:10 PM 31.9633 -97.0689 182° South 411 473 22,000 194 Climbing Fort Worth Center
Sun 12:59:12 PM 31.8594 -97.0742 182° South 412 474 22,000  Level Fort Worth Center
Sun 01:00:15 PM 31.7219 -97.0769 181° South 412 474 22,000  Level Fort Worth Center
Sun 01:01:17 PM 31.6064 -97.0808 182° South 413 475 22,000  Level Fort Worth Center
Sun 01:02:19 PM 31.4914 -97.0981 187° South 414 476 22,000 -194 Level Fort Worth Center
Sun 01:03:21 PM 31.3836 -97.1417 199° South 413 475 21,600 -677 Descending Fort Worth Center
Sun 01:04:23 PM 31.2744 -97.1836 198° South 413 475 20,600 -1,355 Descending Fort Worth Center
Sun 01:05:25 PM 31.1464 -97.2339 199° South 409 471 18,800 -1,790 Descending Fort Worth Center
Sun 01:06:27 PM 31.0419 -97.2758 199° South 404 465 16,900 -1,872 Descending Fort Worth Center
Sun 01:07:30 PM 30.9386 -97.3164 199° South 398 458 14,900 -1,907 Descending Fort Worth Center
Sun 01:08:14 PM 30.8639 -97.3442 198° South 390 449 13,500 -1,075 Descending Houston Center
Sun 01:09:16 PM 30.7689 -97.3803 198° South 371 427 13,000 -816 Descending Houston Center
Sun 01:10:19 PM 30.6869 -97.4353 210° Southwest 353 406 11,800 -1,440 Descending Houston Center
Sun 01:11:21 PM 30.6072 -97.5211 223° Southwest 330 380 10,000 -1,694 Descending Houston Center
Sun 01:12:23 PM 30.5503 -97.5872 225° Southwest 300 345 8,300 -1,355 Descending Houston Center
Sun 01:13:25 PM 30.5044 -97.6411 225° Southwest 250 288 7,200 -1,355 Descending Houston Center
Sun 01:14:27 PM 30.4444 -97.6725 204° Southwest 238 274 5,500 -1,500 Descending Houston Center
Sun 01:15:29 PM 30.3864 -97.6847 190° South 224 258 4,100 -1,248 Descending Houston Center
Sun 01:16:32 PM 30.3278 -97.6828 178° South 216 249 2,900 -1,161 Descending Houston Center
Sun 01:17:33 PM 30.2722 -97.6808 178° South 187 215 1,700 -871 Descending Houston Center
Sun 01:18:36 PM 30.2289 -97.6803 179° South 164 189 1,100 -571 Descending Houston Center

Login

Don't have an account? Register now (free) for customized features, flight alerts, and more!